sensor_id;sensor_type;location;lat;lon;timestamp;temperature;humidity
11963;DHT22;62678;52.130;5.584;2023-03-23T00:00:51;12.20;99.90
11963;DHT22;62678;52.130;5.584;2023-03-23T00:03:19;12.20;99.90
11963;DHT22;62678;52.130;5.584;2023-03-23T00:05:46;12.10;99.90
11963;DHT22;62678;52.130;5.584;2023-03-23T00:08:16;12.10;99.90
11963;DHT22;62678;52.130;5.584;2023-03-23T00:10:43;12.10;99.90
11963;DHT22;62678;52.130;5.584;2023-03-23T00:13:11;12.10;99.90
11963;DHT22;62678;52.130;5.584;2023-03-23T00:15:38;12.10;99.90
11963;DHT22;62678;52.130;5.584;2023-03-23T00:18:06;12.10;99.90
11963;DHT22;62678;52.130;5.584;2023-03-23T00:20:33;12.10;99.90
11963;DHT22;62678;52.130;5.584;2023-03-23T00:23:07;12.20;99.90
11963;DHT22;62678;52.130;5.584;2023-03-23T00:25:34;12.10;99.90
11963;DHT22;62678;52.130;5.584;2023-03-23T00:28:01;12.20;99.90
11963;DHT22;62678;52.130;5.584;2023-03-23T00:30:30;12.20;99.90
11963;DHT22;62678;52.130;5.584;2023-03-23T00:32:56;12.20;99.90
11963;DHT22;62678;52.130;5.584;2023-03-23T00:35:23;12.20;99.90
11963;DHT22;62678;52.130;5.584;2023-03-23T00:37:50;12.20;99.90
11963;DHT22;62678;52.130;5.584;2023-03-23T00:40:17;12.20;99.90
11963;DHT22;62678;52.130;5.584;2023-03-23T00:42:44;12.30;99.90
11963;DHT22;62678;52.130;5.584;2023-03-23T00:45:11;12.30;99.90
11963;DHT22;62678;52.130;5.584;2023-03-23T00:47:40;12.30;99.90
11963;DHT22;62678;52.130;5.584;2023-03-23T00:50:08;12.20;99.90
11963;DHT22;62678;52.130;5.584;2023-03-23T00:52:35;12.20;99.90
11963;DHT22;62678;52.130;5.584;2023-03-23T00:55:02;12.20;99.90
11963;DHT22;62678;52.130;5.584;2023-03-23T00:57:29;12.20;99.90
11963;DHT22;62678;52.130;5.584;2023-03-23T00:59:56;12.20;99.90
11963;DHT22;62678;52.130;5.584;2023-03-23T01:02:23;12.20;99.90
11963;DHT22;62678;52.130;5.584;2023-03-23T01:04:51;12.20;99.90
11963;DHT22;62678;52.130;5.584;2023-03-23T01:07:18;12.30;99.90
11963;DHT22;62678;52.130;5.584;2023-03-23T01:09:46;12.20;99.90
11963;DHT22;62678;52.130;5.584;2023-03-23T01:12:14;12.20;99.90
11963;DHT22;62678;52.130;5.584;2023-03-23T01:14:41;12.10;99.90
11963;DHT22;62678;52.130;5.584;2023-03-23T01:17:08;12.20;99.90
11963;DHT22;62678;52.130;5.584;2023-03-23T01:19:35;12.20;99.90
11963;DHT22;62678;52.130;5.584;2023-03-23T01:22:04;12.20;99.90
11963;DHT22;62678;52.130;5.584;2023-03-23T01:24:31;12.30;99.90
11963;DHT22;62678;52.130;5.584;2023-03-23T01:26:58;12.30;99.90
11963;DHT22;62678;52.130;5.584;2023-03-23T01:29:27;12.30;99.90
11963;DHT22;62678;52.130;5.584;2023-03-23T01:31:54;12.30;99.90
11963;DHT22;62678;52.130;5.584;2023-03-23T01:34:21;12.30;99.90
11963;DHT22;62678;52.130;5.584;2023-03-23T01:36:48;12.40;99.90
11963;DHT22;62678;52.130;5.584;2023-03-23T01:39:16;12.30;99.90
11963;DHT22;62678;52.130;5.584;2023-03-23T01:41:43;12.30;99.90
11963;DHT22;62678;52.130;5.584;2023-03-23T01:47:10;12.40;99.90
11963;DHT22;62678;52.130;5.584;2023-03-23T01:49:41;12.40;99.90
11963;DHT22;62678;52.130;5.584;2023-03-23T01:52:14;12.40;99.90
11963;DHT22;62678;52.130;5.584;2023-03-23T01:54:44;12.40;99.90
11963;DHT22;62678;52.130;5.584;2023-03-23T01:57:15;12.40;99.90
11963;DHT22;62678;52.130;5.584;2023-03-23T01:59:43;12.30;99.90
11963;DHT22;62678;52.130;5.584;2023-03-23T02:02:11;12.30;99.90
11963;DHT22;62678;52.130;5.584;2023-03-23T02:04:39;12.30;99.90
11963;DHT22;62678;52.130;5.584;2023-03-23T02:07:07;12.20;99.90
11963;DHT22;62678;52.130;5.584;2023-03-23T02:09:34;12.20;99.90
11963;DHT22;62678;52.130;5.584;2023-03-23T02:12:03;12.20;99.90
11963;DHT22;62678;52.130;5.584;2023-03-23T02:14:30;12.20;99.90
11963;DHT22;62678;52.130;5.584;2023-03-23T02:17:02;12.20;99.90
11963;DHT22;62678;52.130;5.584;2023-03-23T02:19:53;12.20;99.90
11963;DHT22;62678;52.130;5.584;2023-03-23T02:25:50;12.20;99.90
11963;DHT22;62678;52.130;5.584;2023-03-23T02:28:46;12.20;99.90
11963;DHT22;62678;52.130;5.584;2023-03-23T02:31:43;12.20;99.90
11963;DHT22;62678;52.130;5.584;2023-03-23T02:34:17;12.30;99.90
11963;DHT22;62678;52.130;5.584;2023-03-23T02:36:46;12.30;99.90
11963;DHT22;62678;52.130;5.584;2023-03-23T02:39:19;12.30;99.90
11963;DHT22;62678;52.130;5.584;2023-03-23T02:41:51;12.30;99.90
11963;DHT22;62678;52.130;5.584;2023-03-23T02:44:19;12.30;99.90
11963;DHT22;62678;52.130;5.584;2023-03-23T02:46:48;12.30;99.90
11963;DHT22;62678;52.130;5.584;2023-03-23T02:49:18;12.30;99.90
11963;DHT22;62678;52.130;5.584;2023-03-23T02:51:47;12.30;99.90
11963;DHT22;62678;52.130;5.584;2023-03-23T02:54:16;12.30;99.90
11963;DHT22;62678;52.130;5.584;2023-03-23T02:56:45;12.30;99.90
11963;DHT22;62678;52.130;5.584;2023-03-23T02:59:13;12.30;99.90
11963;DHT22;62678;52.130;5.584;2023-03-23T03:02:02;12.30;99.90
11963;DHT22;62678;52.130;5.584;2023-03-23T03:04:34;12.40;99.90
11963;DHT22;62678;52.130;5.584;2023-03-23T03:07:10;12.40;99.90
11963;DHT22;62678;52.130;5.584;2023-03-23T03:09:46;12.40;99.90
11963;DHT22;62678;52.130;5.584;2023-03-23T03:12:20;12.40;99.90
11963;DHT22;62678;52.130;5.584;2023-03-23T03:14:52;12.40;99.90
11963;DHT22;62678;52.130;5.584;2023-03-23T03:17:24;12.50;99.90
11963;DHT22;62678;52.130;5.584;2023-03-23T03:19:56;12.50;99.90
11963;DHT22;62678;52.130;5.584;2023-03-23T03:22:26;12.50;99.90
11963;DHT22;62678;52.130;5.584;2023-03-23T03:24:56;12.60;99.90
11963;DHT22;62678;52.130;5.584;2023-03-23T03:27:25;12.60;99.90
11963;DHT22;62678;52.130;5.584;2023-03-23T03:29:56;12.60;99.90
11963;DHT22;62678;52.130;5.584;2023-03-23T03:32:28;12.60;99.90
11963;DHT22;62678;52.130;5.584;2023-03-23T03:35:00;12.60;99.90
11963;DHT22;62678;52.130;5.584;2023-03-23T03:37:33;12.60;99.90
11963;DHT22;62678;52.130;5.584;2023-03-23T03:40:04;12.70;99.90
11963;DHT22;62678;52.130;5.584;2023-03-23T03:42:36;12.70;99.90
11963;DHT22;62678;52.130;5.584;2023-03-23T03:45:04;12.70;99.90
11963;DHT22;62678;52.130;5.584;2023-03-23T03:47:31;12.70;99.90
11963;DHT22;62678;52.130;5.584;2023-03-23T03:49:59;12.70;99.90
11963;DHT22;62678;52.130;5.584;2023-03-23T03:52:26;12.70;99.90
11963;DHT22;62678;52.130;5.584;2023-03-23T03:54:54;12.80;99.90
11963;DHT22;62678;52.130;5.584;2023-03-23T03:57:21;12.80;99.90
11963;DHT22;62678;52.130;5.584;2023-03-23T03:59:48;12.70;99.90
11963;DHT22;62678;52.130;5.584;2023-03-23T04:02:15;12.70;99.90
11963;DHT22;62678;52.130;5.584;2023-03-23T04:04:45;12.70;99.90
11963;DHT22;62678;52.130;5.584;2023-03-23T04:07:13;12.70;99.90
11963;DHT22;62678;52.130;5.584;2023-03-23T04:09:41;12.80;99.90
11963;DHT22;62678;52.130;5.584;2023-03-23T04:12:09;12.70;99.90
11963;DHT22;62678;52.130;5.584;2023-03-23T04:14:36;12.70;99.90
11963;DHT22;62678;52.130;5.584;2023-03-23T04:17:02;12.70;99.90
11963;DHT22;62678;52.130;5.584;2023-03-23T04:19:29;12.70;99.90
11963;DHT22;62678;52.130;5.584;2023-03-23T04:21:58;12.70;99.90
11963;DHT22;62678;52.130;5.584;2023-03-23T04:24:26;12.70;99.90
11963;DHT22;62678;52.130;5.584;2023-03-23T04:26:57;12.80;99.90
11963;DHT22;62678;52.130;5.584;2023-03-23T04:29:24;12.80;99.90
11963;DHT22;62678;52.130;5.584;2023-03-23T04:31:51;12.80;99.90
11963;DHT22;62678;52.130;5.584;2023-03-23T04:34:18;12.80;99.90
11963;DHT22;62678;52.130;5.584;2023-03-23T04:36:45;12.80;99.90
11963;DHT22;62678;52.130;5.584;2023-03-23T04:39:13;12.80;99.90
11963;DHT22;62678;52.130;5.584;2023-03-23T04:41:42;12.80;99.90
11963;DHT22;62678;52.130;5.584;2023-03-23T04:44:09;12.80;99.90
11963;DHT22;62678;52.130;5.584;2023-03-23T04:46:36;12.80;99.90
11963;DHT22;62678;52.130;5.584;2023-03-23T04:49:04;12.80;99.90
11963;DHT22;62678;52.130;5.584;2023-03-23T04:51:31;12.80;99.90
11963;DHT22;62678;52.130;5.584;2023-03-23T04:53:57;12.80;99.90
11963;DHT22;62678;52.130;5.584;2023-03-23T04:56:25;12.80;99.90
11963;DHT22;62678;52.130;5.584;2023-03-23T04:58:53;12.80;99.90
11963;DHT22;62678;52.130;5.584;2023-03-23T05:01:20;12.80;99.90
11963;DHT22;62678;52.130;5.584;2023-03-23T05:03:47;12.90;99.90
11963;DHT22;62678;52.130;5.584;2023-03-23T05:06:14;12.90;99.90
11963;DHT22;62678;52.130;5.584;2023-03-23T05:08:42;12.80;99.90
11963;DHT22;62678;52.130;5.584;2023-03-23T05:11:08;12.80;99.90
11963;DHT22;62678;52.130;5.584;2023-03-23T05:13:35;12.80;99.90
11963;DHT22;62678;52.130;5.584;2023-03-23T05:16:07;12.70;99.90
11963;DHT22;62678;52.130;5.584;2023-03-23T05:18:33;12.80;99.90
11963;DHT22;62678;52.130;5.584;2023-03-23T05:21:01;12.80;99.90
11963;DHT22;62678;52.130;5.584;2023-03-23T05:23:28;12.80;99.90
11963;DHT22;62678;52.130;5.584;2023-03-23T05:25:57;12.80;99.90
11963;DHT22;62678;52.130;5.584;2023-03-23T05:28:26;12.70;99.90
11963;DHT22;62678;52.130;5.584;2023-03-23T05:30:54;12.70;99.90
11963;DHT22;62678;52.130;5.584;2023-03-23T05:33:23;12.70;99.90
11963;DHT22;62678;52.130;5.584;2023-03-23T05:35:51;12.70;99.90
11963;DHT22;62678;52.130;5.584;2023-03-23T05:38:17;12.70;99.90
11963;DHT22;62678;52.130;5.584;2023-03-23T05:40:45;12.70;99.90
11963;DHT22;62678;52.130;5.584;2023-03-23T05:43:12;12.60;99.90
11963;DHT22;62678;52.130;5.584;2023-03-23T05:45:38;12.60;99.90
11963;DHT22;62678;52.130;5.584;2023-03-23T05:48:05;12.60;99.90
11963;DHT22;62678;52.130;5.584;2023-03-23T05:50:34;12.50;99.90
11963;DHT22;62678;52.130;5.584;2023-03-23T05:53:01;12.50;99.90
11963;DHT22;62678;52.130;5.584;2023-03-23T05:55:29;12.60;99.90
11963;DHT22;62678;52.130;5.584;2023-03-23T05:57:56;12.60;99.90
11963;DHT22;62678;52.130;5.584;2023-03-23T06:00:23;12.50;99.90
11963;DHT22;62678;52.130;5.584;2023-03-23T06:02:54;12.50;99.90
11963;DHT22;62678;52.130;5.584;2023-03-23T06:05:22;12.50;99.90
11963;DHT22;62678;52.130;5.584;2023-03-23T06:07:52;12.50;99.90
11963;DHT22;62678;52.130;5.584;2023-03-23T06:10:20;12.50;99.90
11963;DHT22;62678;52.130;5.584;2023-03-23T06:12:47;12.40;99.90
11963;DHT22;62678;52.130;5.584;2023-03-23T06:15:14;12.40;99.90
11963;DHT22;62678;52.130;5.584;2023-03-23T06:17:41;12.10;99.90
11963;DHT22;62678;52.130;5.584;2023-03-23T06:20:09;11.90;99.90
11963;DHT22;62678;52.130;5.584;2023-03-23T06:22:37;11.70;99.90
11963;DHT22;62678;52.130;5.584;2023-03-23T06:25:07;11.70;99.90
11963;DHT22;62678;52.130;5.584;2023-03-23T06:27:34;11.50;99.90
11963;DHT22;62678;52.130;5.584;2023-03-23T06:30:02;11.60;99.90
11963;DHT22;62678;52.130;5.584;2023-03-23T06:32:30;11.60;99.90
11963;DHT22;62678;52.130;5.584;2023-03-23T06:34:58;11.50;99.90
11963;DHT22;62678;52.130;5.584;2023-03-23T06:37:25;11.60;99.90
11963;DHT22;62678;52.130;5.584;2023-03-23T06:39:51;11.60;99.90
11963;DHT22;62678;52.130;5.584;2023-03-23T06:42:22;11.70;99.90
11963;DHT22;62678;52.130;5.584;2023-03-23T06:44:50;11.70;99.90
11963;DHT22;62678;52.130;5.584;2023-03-23T06:47:17;11.70;99.90
11963;DHT22;62678;52.130;5.584;2023-03-23T06:49:44;11.70;99.90
11963;DHT22;62678;52.130;5.584;2023-03-23T06:52:11;11.80;99.90
11963;DHT22;62678;52.130;5.584;2023-03-23T06:54:38;11.70;99.90
11963;DHT22;62678;52.130;5.584;2023-03-23T06:57:05;11.80;99.90
11963;DHT22;62678;52.130;5.584;2023-03-23T06:59:33;11.80;99.90
11963;DHT22;62678;52.130;5.584;2023-03-23T07:02:00;11.90;99.90
11963;DHT22;62678;52.130;5.584;2023-03-23T07:04:27;11.90;99.90
11963;DHT22;62678;52.130;5.584;2023-03-23T07:06:54;11.90;99.90
11963;DHT22;62678;52.130;5.584;2023-03-23T07:09:22;11.90;99.90
11963;DHT22;62678;52.130;5.584;2023-03-23T07:11:48;11.90;99.90
11963;DHT22;62678;52.130;5.584;2023-03-23T07:14:17;11.90;99.90
11963;DHT22;62678;52.130;5.584;2023-03-23T07:16:45;12.00;99.90
11963;DHT22;62678;52.130;5.584;2023-03-23T07:19:12;12.00;99.90
11963;DHT22;62678;52.130;5.584;2023-03-23T07:21:39;12.00;99.90
11963;DHT22;62678;52.130;5.584;2023-03-23T07:24:09;12.00;99.90
11963;DHT22;62678;52.130;5.584;2023-03-23T07:26:37;12.00;99.90
11963;DHT22;62678;52.130;5.584;2023-03-23T07:29:04;11.90;99.90
11963;DHT22;62678;52.130;5.584;2023-03-23T07:31:33;11.90;99.90
11963;DHT22;62678;52.130;5.584;2023-03-23T07:34:02;11.90;99.90
11963;DHT22;62678;52.130;5.584;2023-03-23T07:36:29;11.90;99.90
11963;DHT22;62678;52.130;5.584;2023-03-23T07:38:57;12.00;99.90
11963;DHT22;62678;52.130;5.584;2023-03-23T07:41:24;12.00;99.90
11963;DHT22;62678;52.130;5.584;2023-03-23T07:43:52;12.10;99.90
11963;DHT22;62678;52.130;5.584;2023-03-23T07:46:18;12.20;99.90
11963;DHT22;62678;52.130;5.584;2023-03-23T07:48:45;12.30;99.90
11963;DHT22;62678;52.130;5.584;2023-03-23T07:51:14;12.30;99.90
11963;DHT22;62678;52.130;5.584;2023-03-23T07:53:43;12.30;99.90
11963;DHT22;62678;52.130;5.584;2023-03-23T07:56:10;12.20;99.90
11963;DHT22;62678;52.130;5.584;2023-03-23T07:58:37;12.20;99.90
11963;DHT22;62678;52.130;5.584;2023-03-23T08:01:04;12.20;99.90
11963;DHT22;62678;52.130;5.584;2023-03-23T08:03:32;12.20;99.90
11963;DHT22;62678;52.130;5.584;2023-03-23T08:06:00;12.20;99.90
11963;DHT22;62678;52.130;5.584;2023-03-23T08:08:28;12.20;99.90
11963;DHT22;62678;52.130;5.584;2023-03-23T08:10:55;12.30;99.90
11963;DHT22;62678;52.130;5.584;2023-03-23T08:13:22;12.30;99.90
11963;DHT22;62678;52.130;5.584;2023-03-23T08:15:50;12.40;99.90
11963;DHT22;62678;52.130;5.584;2023-03-23T08:18:17;12.40;99.90
11963;DHT22;62678;52.130;5.584;2023-03-23T08:20:44;12.30;99.90
11963;DHT22;62678;52.130;5.584;2023-03-23T08:23:11;12.20;99.90
11963;DHT22;62678;52.130;5.584;2023-03-23T08:25:42;12.30;99.90
11963;DHT22;62678;52.130;5.584;2023-03-23T08:28:09;12.30;99.90
11963;DHT22;62678;52.130;5.584;2023-03-23T08:30:38;12.20;99.90
11963;DHT22;62678;52.130;5.584;2023-03-23T08:33:05;12.30;99.90
11963;DHT22;62678;52.130;5.584;2023-03-23T08:35:33;12.40;99.90
11963;DHT22;62678;52.130;5.584;2023-03-23T08:38:01;12.40;99.90
11963;DHT22;62678;52.130;5.584;2023-03-23T08:40:28;12.40;99.90
11963;DHT22;62678;52.130;5.584;2023-03-23T08:42:57;12.30;99.90
11963;DHT22;62678;52.130;5.584;2023-03-23T08:45:24;12.20;99.90
11963;DHT22;62678;52.130;5.584;2023-03-23T08:47:52;12.30;99.90
11963;DHT22;62678;52.130;5.584;2023-03-23T08:50:22;12.40;99.90
11963;DHT22;62678;52.130;5.584;2023-03-23T08:52:50;12.50;99.90
11963;DHT22;62678;52.130;5.584;2023-03-23T08:55:17;12.60;99.90
11963;DHT22;62678;52.130;5.584;2023-03-23T08:57:44;12.80;99.90
11963;DHT22;62678;52.130;5.584;2023-03-23T09:00:14;12.80;99.90
11963;DHT22;62678;52.130;5.584;2023-03-23T09:02:44;12.80;99.90
11963;DHT22;62678;52.130;5.584;2023-03-23T09:05:12;12.70;99.90
11963;DHT22;62678;52.130;5.584;2023-03-23T09:07:39;12.70;99.90
11963;DHT22;62678;52.130;5.584;2023-03-23T09:10:07;12.70;99.90
11963;DHT22;62678;52.130;5.584;2023-03-23T09:12:35;12.90;99.90
11963;DHT22;62678;52.130;5.584;2023-03-23T09:15:02;13.00;99.90
11963;DHT22;62678;52.130;5.584;2023-03-23T09:17:35;13.20;99.90
11963;DHT22;62678;52.130;5.584;2023-03-23T09:20:03;13.40;99.90
11963;DHT22;62678;52.130;5.584;2023-03-23T09:22:33;13.50;99.90
11963;DHT22;62678;52.130;5.584;2023-03-23T09:24:59;13.40;99.90
11963;DHT22;62678;52.130;5.584;2023-03-23T09:27:27;13.50;99.90
11963;DHT22;62678;52.130;5.584;2023-03-23T09:29:54;13.50;99.90
11963;DHT22;62678;52.130;5.584;2023-03-23T09:32:21;13.40;99.90
11963;DHT22;62678;52.130;5.584;2023-03-23T09:34:50;13.40;99.90
11963;DHT22;62678;52.130;5.584;2023-03-23T09:37:20;13.30;99.90
11963;DHT22;62678;52.130;5.584;2023-03-23T09:39:47;13.50;99.90
11963;DHT22;62678;52.130;5.584;2023-03-23T09:42:30;13.50;99.90
11963;DHT22;62678;52.130;5.584;2023-03-23T09:45:07;13.60;99.90
11963;DHT22;62678;52.130;5.584;2023-03-23T09:47:41;13.50;99.90
11963;DHT22;62678;52.130;5.584;2023-03-23T09:50:15;13.60;99.90
11963;DHT22;62678;52.130;5.584;2023-03-23T09:52:47;13.80;99.90
11963;DHT22;62678;52.130;5.584;2023-03-23T09:55:17;13.80;99.90
11963;DHT22;62678;52.130;5.584;2023-03-23T09:57:49;13.90;99.90
11963;DHT22;62678;52.130;5.584;2023-03-23T10:00:22;14.10;99.90
11963;DHT22;62678;52.130;5.584;2023-03-23T10:02:58;14.10;99.90
11963;DHT22;62678;52.130;5.584;2023-03-23T10:05:33;13.80;99.90
11963;DHT22;62678;52.130;5.584;2023-03-23T10:08:02;13.80;99.90
11963;DHT22;62678;52.130;5.584;2023-03-23T10:10:39;13.80;99.90
11963;DHT22;62678;52.130;5.584;2023-03-23T10:13:17;14.00;99.90
11963;DHT22;62678;52.130;5.584;2023-03-23T10:15:47;14.00;99.90
11963;DHT22;62678;52.130;5.584;2023-03-23T10:18:18;14.10;99.90
11963;DHT22;62678;52.130;5.584;2023-03-23T10:20:50;14.10;99.90
11963;DHT22;62678;52.130;5.584;2023-03-23T10:23:41;14.20;99.90
11963;DHT22;62678;52.130;5.584;2023-03-23T10:26:16;14.30;99.90
11963;DHT22;62678;52.130;5.584;2023-03-23T10:28:47;14.10;99.90
11963;DHT22;62678;52.130;5.584;2023-03-23T10:31:19;14.10;99.90
11963;DHT22;62678;52.130;5.584;2023-03-23T10:33:49;14.10;99.90
11963;DHT22;62678;52.130;5.584;2023-03-23T10:36:22;14.40;99.90
11963;DHT22;62678;52.130;5.584;2023-03-23T10:38:58;14.40;99.90
11963;DHT22;62678;52.130;5.584;2023-03-23T10:41:27;14.50;99.90
11963;DHT22;62678;52.130;5.584;2023-03-23T10:43:53;14.90;99.90
11963;DHT22;62678;52.130;5.584;2023-03-23T10:46:29;15.00;99.90
11963;DHT22;62678;52.130;5.584;2023-03-23T10:49:00;14.80;99.90
11963;DHT22;62678;52.130;5.584;2023-03-23T10:51:34;14.60;99.90
11963;DHT22;62678;52.130;5.584;2023-03-23T10:54:03;14.50;99.90
11963;DHT22;62678;52.130;5.584;2023-03-23T10:56:36;14.90;99.90
11963;DHT22;62678;52.130;5.584;2023-03-23T10:59:13;14.90;99.90
11963;DHT22;62678;52.130;5.584;2023-03-23T11:01:43;15.00;99.90
11963;DHT22;62678;52.130;5.584;2023-03-23T11:04:13;15.10;99.90
11963;DHT22;62678;52.130;5.584;2023-03-23T11:06:44;15.10;99.90
11963;DHT22;62678;52.130;5.584;2023-03-23T11:09:14;15.20;99.90
11963;DHT22;62678;52.130;5.584;2023-03-23T11:11:49;15.10;99.90
11963;DHT22;62678;52.130;5.584;2023-03-23T11:14:18;14.80;99.90
11963;DHT22;62678;52.130;5.584;2023-03-23T11:16:50;14.60;99.90
11963;DHT22;62678;52.130;5.584;2023-03-23T11:19:23;14.50;99.90
11963;DHT22;62678;52.130;5.584;2023-03-23T11:21:53;14.50;99.90
11963;DHT22;62678;52.130;5.584;2023-03-23T11:24:22;14.80;99.90
11963;DHT22;62678;52.130;5.584;2023-03-23T11:26:50;14.90;99.90
11963;DHT22;62678;52.130;5.584;2023-03-23T11:29:20;14.90;99.90
11963;DHT22;62678;52.130;5.584;2023-03-23T11:31:50;14.60;99.90
11963;DHT22;62678;52.130;5.584;2023-03-23T11:34:20;14.60;99.90
11963;DHT22;62678;52.130;5.584;2023-03-23T11:36:49;14.60;99.90
11963;DHT22;62678;52.130;5.584;2023-03-23T11:39:24;14.50;99.90
11963;DHT22;62678;52.130;5.584;2023-03-23T11:41:52;14.70;99.90
11963;DHT22;62678;52.130;5.584;2023-03-23T11:44:22;14.70;99.90
11963;DHT22;62678;52.130;5.584;2023-03-23T11:46:57;14.90;99.90
11963;DHT22;62678;52.130;5.584;2023-03-23T11:49:31;15.00;99.90
11963;DHT22;62678;52.130;5.584;2023-03-23T11:52:04;14.90;99.90
11963;DHT22;62678;52.130;5.584;2023-03-23T11:54:37;14.80;99.90
11963;DHT22;62678;52.130;5.584;2023-03-23T11:57:07;14.90;99.90
11963;DHT22;62678;52.130;5.584;2023-03-23T11:59:36;14.70;99.90
11963;DHT22;62678;52.130;5.584;2023-03-23T12:02:27;14.80;99.90
11963;DHT22;62678;52.130;5.584;2023-03-23T12:05:11;14.80;99.90
11963;DHT22;62678;52.130;5.584;2023-03-23T12:07:52;14.70;99.90
11963;DHT22;62678;52.130;5.584;2023-03-23T12:10:29;14.40;99.90
11963;DHT22;62678;52.130;5.584;2023-03-23T12:13:22;14.20;99.90
11963;DHT22;62678;52.130;5.584;2023-03-23T12:15:57;14.10;99.90
11963;DHT22;62678;52.130;5.584;2023-03-23T12:18:40;13.60;99.90
11963;DHT22;62678;52.130;5.584;2023-03-23T12:21:16;13.40;99.90
11963;DHT22;62678;52.130;5.584;2023-03-23T12:23:50;12.80;99.90
11963;DHT22;62678;52.130;5.584;2023-03-23T12:26:23;12.70;99.90
11963;DHT22;62678;52.130;5.584;2023-03-23T12:29:17;12.90;99.90
11963;DHT22;62678;52.130;5.584;2023-03-23T12:32:13;13.10;99.90
11963;DHT22;62678;52.130;5.584;2023-03-23T12:34:49;13.40;99.90
11963;DHT22;62678;52.130;5.584;2023-03-23T12:37:30;13.80;99.90
11963;DHT22;62678;52.130;5.584;2023-03-23T12:40:19;14.10;99.90
11963;DHT22;62678;52.130;5.584;2023-03-23T12:42:55;14.20;99.90
11963;DHT22;62678;52.130;5.584;2023-03-23T12:45:41;14.30;99.90
11963;DHT22;62678;52.130;5.584;2023-03-23T12:48:13;14.40;99.90
11963;DHT22;62678;52.130;5.584;2023-03-23T12:50:45;14.50;99.90
11963;DHT22;62678;52.130;5.584;2023-03-23T12:53:16;14.60;99.90
11963;DHT22;62678;52.130;5.584;2023-03-23T12:55:48;14.90;99.90
11963;DHT22;62678;52.130;5.584;2023-03-23T12:58:20;14.90;99.90
11963;DHT22;62678;52.130;5.584;2023-03-23T13:00:55;15.20;99.90
11963;DHT22;62678;52.130;5.584;2023-03-23T13:03:26;15.10;99.90
11963;DHT22;62678;52.130;5.584;2023-03-23T13:05:58;15.00;99.90
11963;DHT22;62678;52.130;5.584;2023-03-23T13:08:33;15.20;99.90
11963;DHT22;62678;52.130;5.584;2023-03-23T13:11:03;15.40;99.90
11963;DHT22;62678;52.130;5.584;2023-03-23T13:13:45;15.50;99.90
11963;DHT22;62678;52.130;5.584;2023-03-23T13:16:20;15.50;99.90
11963;DHT22;62678;52.130;5.584;2023-03-23T13:19:00;15.60;99.90
11963;DHT22;62678;52.130;5.584;2023-03-23T13:21:33;15.90;99.90
11963;DHT22;62678;52.130;5.584;2023-03-23T13:24:04;15.80;99.90
11963;DHT22;62678;52.130;5.584;2023-03-23T13:26:37;15.60;99.90
11963;DHT22;62678;52.130;5.584;2023-03-23T13:29:12;15.70;99.90
11963;DHT22;62678;52.130;5.584;2023-03-23T13:31:41;15.50;99.90
11963;DHT22;62678;52.130;5.584;2023-03-23T13:34:17;15.50;99.90
11963;DHT22;62678;52.130;5.584;2023-03-23T13:36:54;15.30;99.90
11963;DHT22;62678;52.130;5.584;2023-03-23T13:39:25;15.30;99.90
11963;DHT22;62678;52.130;5.584;2023-03-23T13:42:03;15.30;99.90
11963;DHT22;62678;52.130;5.584;2023-03-23T13:44:42;15.50;99.90
11963;DHT22;62678;52.130;5.584;2023-03-23T13:47:24;15.30;99.90
11963;DHT22;62678;52.130;5.584;2023-03-23T13:49:54;15.30;99.90
11963;DHT22;62678;52.130;5.584;2023-03-23T13:52:24;15.20;99.90
11963;DHT22;62678;52.130;5.584;2023-03-23T13:55:13;15.10;99.90
11963;DHT22;62678;52.130;5.584;2023-03-23T13:57:50;15.00;99.90
11963;DHT22;62678;52.130;5.584;2023-03-23T14:00:45;14.90;99.90
11963;DHT22;62678;52.130;5.584;2023-03-23T14:03:15;15.00;99.90
11963;DHT22;62678;52.130;5.584;2023-03-23T14:05:45;15.00;99.90
11963;DHT22;62678;52.130;5.584;2023-03-23T14:08:22;15.10;99.90
11963;DHT22;62678;52.130;5.584;2023-03-23T14:10:53;15.10;99.90
11963;DHT22;62678;52.130;5.584;2023-03-23T14:13:28;15.00;99.90
11963;DHT22;62678;52.130;5.584;2023-03-23T14:15:59;14.60;99.90
11963;DHT22;62678;52.130;5.584;2023-03-23T14:18:31;14.00;99.90
11963;DHT22;62678;52.130;5.584;2023-03-23T14:20:59;13.60;99.90
11963;DHT22;62678;52.130;5.584;2023-03-23T14:23:26;13.50;99.90
11963;DHT22;62678;52.130;5.584;2023-03-23T14:25:59;13.70;99.90
11963;DHT22;62678;52.130;5.584;2023-03-23T14:28:37;13.60;99.90
11963;DHT22;62678;52.130;5.584;2023-03-23T14:31:14;13.70;99.90
11963;DHT22;62678;52.130;5.584;2023-03-23T14:33:41;14.00;99.90
11963;DHT22;62678;52.130;5.584;2023-03-23T14:36:09;14.40;99.90
11963;DHT22;62678;52.130;5.584;2023-03-23T14:38:36;14.60;99.90
11963;DHT22;62678;52.130;5.584;2023-03-23T14:41:05;15.00;99.90
11963;DHT22;62678;52.130;5.584;2023-03-23T14:43:34;15.10;99.90
11963;DHT22;62678;52.130;5.584;2023-03-23T14:46:07;15.10;99.90
11963;DHT22;62678;52.130;5.584;2023-03-23T14:48:35;15.30;99.90
11963;DHT22;62678;52.130;5.584;2023-03-23T14:51:04;15.50;99.90
11963;DHT22;62678;52.130;5.584;2023-03-23T14:53:36;15.60;99.90
11963;DHT22;62678;52.130;5.584;2023-03-23T14:56:10;15.60;99.90
11963;DHT22;62678;52.130;5.584;2023-03-23T14:58:38;15.40;99.90
11963;DHT22;62678;52.130;5.584;2023-03-23T15:01:09;15.50;99.90
11963;DHT22;62678;52.130;5.584;2023-03-23T15:03:40;15.40;99.90
11963;DHT22;62678;52.130;5.584;2023-03-23T15:06:12;15.60;99.90
11963;DHT22;62678;52.130;5.584;2023-03-23T15:08:41;15.60;99.90
11963;DHT22;62678;52.130;5.584;2023-03-23T15:11:13;15.60;99.90
11963;DHT22;62678;52.130;5.584;2023-03-23T15:13:44;15.70;99.90
11963;DHT22;62678;52.130;5.584;2023-03-23T15:16:17;15.90;99.90
11963;DHT22;62678;52.130;5.584;2023-03-23T15:18:49;15.90;99.90
11963;DHT22;62678;52.130;5.584;2023-03-23T15:21:29;16.00;99.90
11963;DHT22;62678;52.130;5.584;2023-03-23T15:23:56;16.20;99.90
11963;DHT22;62678;52.130;5.584;2023-03-23T15:26:28;16.40;99.90
11963;DHT22;62678;52.130;5.584;2023-03-23T15:31:52;16.90;99.90
11963;DHT22;62678;52.130;5.584;2023-03-23T15:34:26;17.30;99.90
11963;DHT22;62678;52.130;5.584;2023-03-23T15:36:57;17.20;99.90
11963;DHT22;62678;52.130;5.584;2023-03-23T15:39:25;17.00;99.90
11963;DHT22;62678;52.130;5.584;2023-03-23T15:41:54;16.90;99.90
11963;DHT22;62678;52.130;5.584;2023-03-23T15:44:24;16.80;99.90
11963;DHT22;62678;52.130;5.584;2023-03-23T15:47:03;16.90;99.90
11963;DHT22;62678;52.130;5.584;2023-03-23T15:49:30;17.20;99.90
11963;DHT22;62678;52.130;5.584;2023-03-23T15:51:57;17.50;99.90
11963;DHT22;62678;52.130;5.584;2023-03-23T15:54:30;17.60;99.90
11963;DHT22;62678;52.130;5.584;2023-03-23T15:56:58;17.80;99.90
11963;DHT22;62678;52.130;5.584;2023-03-23T15:59:25;17.70;99.90